(°C)
17°
18°
19°
20°
20°
20°
20°
(°C)
15°
16°
17°
18°
18°
18°
18°
ESE
ESE
SE
SE
SE
SE
SE
(km/h)
8-17
9-19
10-20
11-22
11-24
12-25
12-25
(mm)
0
0
0
0
0
0
0
(%)
0
0
0
4
7
11
14

Elevación del sol

/ 40.2°
sun-icon
UV 3
05:38
20:20
Menguante (315°)
03:44
16:45

METAR a Wilmington Manor (KILG)

Hora Condiciones Temperatura/
Punto de condensación
Viento Visibilidad Tiempo Nubes Presión Cambiar Bruto
MVFR 15.6°C / 11.7°C 110º 5kt >10km - Broken Clouds 2200ft
Broken Clouds 3400ft
Overcast 5500ft
- KILG 261259Z 11005KT 10SM BKN022 BKN034 OVC055 16/12 A3031 RMK AO2 T01560117
VFR 15.6°C / 11.7°C 100º 4kt >10km - Scattered Clouds 2300ft
Broken Clouds 3300ft
Overcast 5500ft
1026 - KILG 261251Z 10004KT 10SM SCT023 BKN033 OVC055 16/12 A3031 RMK AO2 SLP264 T01560117
VFR 15°C / 11.1°C 90º 3kt >10km - Scattered Clouds 2400ft
Broken Clouds 3400ft
Overcast 5500ft
1026 - KILG 261151Z 09003KT 10SM SCT024 BKN034 OVC055 15/11 A3032 RMK AO2 SLP268 T01500111 10150 20122 53007
MVFR 13.9°C / 10.6°C variable 3kt >10km - Broken Clouds 2800ft
Overcast 3400ft
1026 - KILG 261051Z VRB03KT 10SM BKN028 OVC034 14/11 A3032 RMK AO2 SLP266 T01390106
MVFR 13.3°C / 10°C 90º 3kt >10km - Overcast 3000ft - KILG 261037Z 09003KT 10SM OVC030 13/10 A3031 RMK AO2 T01330100
MVFR 12.8°C / 10°C 90º 3kt >10km - Broken Clouds 2800ft - KILG 261018Z 09003KT 10SM BKN028 13/10 A3030 RMK AO2 T01280100
VFR 12.8°C / 9.4°C 110º 4kt >10km - Few Clouds 2900ft 1025 - KILG 260951Z AUTO 11004KT 10SM FEW029 13/09 A3030 RMK AO2 SLP259 T01280094
VFR 12.8°C / 8.3°C 100º 3kt >10km - Few Clouds 6000ft 1026 - KILG 260851Z 10003KT 10SM FEW060 13/08 A3030 RMK AO2 SLP260 T01280083 56008
VFR 12.8°C / 7.8°C 70º 4kt >10km - Clear 1026 - KILG 260751Z 07004KT 10SM CLR 13/08 A3031 RMK AO2 SLP262 T01280078
VFR 13.3°C / 7.2°C 100º 5kt >10km - Overcast 6000ft 1026 - KILG 260651Z 10005KT 10SM OVC060 13/07 A3031 RMK AO2 SLP264 T01330072
VFR 13.9°C / 6.7°C 110º 5kt >10km - Overcast 6000ft 1026 - KILG 260551Z 11005KT 10SM OVC060 14/07 A3033 RMK AO2 SLP269 T01390067 10194 20139 58007
VFR 14.4°C / 5.6°C 110º 4kt >10km - Overcast 6500ft 1027 - KILG 260451Z 11004KT 10SM OVC065 14/06 A3034 RMK AO2 SLP274 T01440056 402390133
VFR 15°C / 5°C 100º 6kt >10km - Broken Clouds 6500ft 1027 - KILG 260351Z 10006KT 10SM BKN065 15/05 A3035 RMK AO2 SLP277 T01500050
VFR 16.1°C / 3.9°C 100º 8kt >10km - Scattered Clouds 6000ft 1027 - KILG 260251Z 10008KT 10SM SCT060 16/04 A3035 RMK AO2 SLP276 T01610039 51003
VFR 17.2°C / 5.6°C 100º 7kt >10km - Overcast 6500ft 1027 - KILG 260151Z 10007KT 10SM OVC065 17/06 A3035 RMK AO2 SLP276 T01720056
VFR 18.3°C / 6.1°C 120º 10kt >10km - Overcast 7000ft 1027 - KILG 260051Z 12010KT 10SM OVC070 18/06 A3035 RMK AO2 SLP277 T01830061
VFR 19.4°C / 7.8°C 110º 8kt >10km - Overcast 7000ft 1027 - KILG 252351Z 11008KT 10SM OVC070 19/08 A3034 RMK AO2 SLP272 T01940078 10239 20194 53007
VFR 21.1°C / 8.3°C 120º 10kt >10km - Broken Clouds 7500ft 1026 - KILG 252251Z 12010KT 10SM BKN075 21/08 A3032 RMK AO2 SLP265 T02110083
VFR 21.7°C / 11.1°C 180º 10kt >10km - Clear 1026 - KILG 252151Z 18010KT 10SM CLR 22/11 A3031 RMK AO2 SLP265 T02170111
VFR 22.8°C / 10°C 180º 10kt >10km - Scattered Clouds 7500ft 1026 - KILG 252051Z 18010KT 10SM SCT075 23/10 A3032 RMK AO2 SLP265 T02280100 56011
VFR 23.3°C / 8.3°C 140º 10kt >10km - Broken Clouds 8000ft 1026 - KILG 251951Z 14010KT 10SM BKN080 23/08 A3032 RMK AO2 SLP267 T02330083
VFR 23.3°C / 8.9°C 130º 9kt Gust 17kt >10km - Overcast 8000ft 1027 - KILG 251851Z 13009G17KT 10SM OVC080 23/09 A3034 RMK AO2 SLP273 T02330089
VFR 23.3°C / 8.9°C 120º 11kt >10km - Overcast 8000ft 1027 - KILG 251751Z 12011KT 10SM OVC080 23/09 A3035 RMK AO2 SLP276 T02330089 10233 20156 57010
VFR 22.2°C / 10°C 90º 9kt >10km - Overcast 8000ft 1027 - KILG 251651Z 09009KT 10SM OVC080 22/10 A3036 RMK AO2 SLP279 T02220100

MVFR

15.6°C / 11.7°C

[Más]
Viento 110º 5kt
Visibilidad >10km
Tiempo -
Nubes Broken Clouds 2200ft
Broken Clouds 3400ft
Overcast 5500ft
Presión
Cambiar -
Bruto KILG 261259Z 11005KT 10SM BKN022 BKN034 OVC055 16/12 A3031 RMK AO2 T01560117

VFR

15.6°C / 11.7°C

[Más]
Viento 100º 4kt
Visibilidad >10km
Tiempo -
Nubes Scattered Clouds 2300ft
Broken Clouds 3300ft
Overcast 5500ft
Presión 1026
Cambiar -
Bruto KILG 261251Z 10004KT 10SM SCT023 BKN033 OVC055 16/12 A3031 RMK AO2 SLP264 T01560117

VFR

15°C / 11.1°C

[Más]
Viento 90º 3kt
Visibilidad >10km
Tiempo -
Nubes Scattered Clouds 2400ft
Broken Clouds 3400ft
Overcast 5500ft
Presión 1026
Cambiar -
Bruto KILG 261151Z 09003KT 10SM SCT024 BKN034 OVC055 15/11 A3032 RMK AO2 SLP268 T01500111 10150 20122 53007

MVFR

13.9°C / 10.6°C

[Más]
Viento variable 3kt
Visibilidad >10km
Tiempo -
Nubes Broken Clouds 2800ft
Overcast 3400ft
Presión 1026
Cambiar -
Bruto KILG 261051Z VRB03KT 10SM BKN028 OVC034 14/11 A3032 RMK AO2 SLP266 T01390106

MVFR

13.3°C / 10°C

[Más]
Viento 90º 3kt
Visibilidad >10km
Tiempo -
Nubes Overcast 3000ft
Presión
Cambiar -
Bruto KILG 261037Z 09003KT 10SM OVC030 13/10 A3031 RMK AO2 T01330100

MVFR

12.8°C / 10°C

[Más]
Viento 90º 3kt
Visibilidad >10km
Tiempo -
Nubes Broken Clouds 2800ft
Presión
Cambiar -
Bruto KILG 261018Z 09003KT 10SM BKN028 13/10 A3030 RMK AO2 T01280100

VFR

12.8°C / 9.4°C

[Más]
Viento 110º 4kt
Visibilidad >10km
Tiempo -
Nubes Few Clouds 2900ft
Presión 1025
Cambiar -
Bruto KILG 260951Z AUTO 11004KT 10SM FEW029 13/09 A3030 RMK AO2 SLP259 T01280094

VFR

12.8°C / 8.3°C

[Más]
Viento 100º 3kt
Visibilidad >10km
Tiempo -
Nubes Few Clouds 6000ft
Presión 1026
Cambiar -
Bruto KILG 260851Z 10003KT 10SM FEW060 13/08 A3030 RMK AO2 SLP260 T01280083 56008

VFR

12.8°C / 7.8°C

[Más]
Viento 70º 4kt
Visibilidad >10km
Tiempo -
Nubes Clear
Presión 1026
Cambiar -
Bruto KILG 260751Z 07004KT 10SM CLR 13/08 A3031 RMK AO2 SLP262 T01280078

VFR

13.3°C / 7.2°C

[Más]
Viento 100º 5kt
Visibilidad >10km
Tiempo -
Nubes Overcast 6000ft
Presión 1026
Cambiar -
Bruto KILG 260651Z 10005KT 10SM OVC060 13/07 A3031 RMK AO2 SLP264 T01330072

VFR

13.9°C / 6.7°C

[Más]
Viento 110º 5kt
Visibilidad >10km
Tiempo -
Nubes Overcast 6000ft
Presión 1026
Cambiar -
Bruto KILG 260551Z 11005KT 10SM OVC060 14/07 A3033 RMK AO2 SLP269 T01390067 10194 20139 58007

VFR

14.4°C / 5.6°C

[Más]
Viento 110º 4kt
Visibilidad >10km
Tiempo -
Nubes Overcast 6500ft
Presión 1027
Cambiar -
Bruto KILG 260451Z 11004KT 10SM OVC065 14/06 A3034 RMK AO2 SLP274 T01440056 402390133

VFR

15°C / 5°C

[Más]
Viento 100º 6kt
Visibilidad >10km
Tiempo -
Nubes Broken Clouds 6500ft
Presión 1027
Cambiar -
Bruto KILG 260351Z 10006KT 10SM BKN065 15/05 A3035 RMK AO2 SLP277 T01500050

VFR

16.1°C / 3.9°C

[Más]
Viento 100º 8kt
Visibilidad >10km
Tiempo -
Nubes Scattered Clouds 6000ft
Presión 1027
Cambiar -
Bruto KILG 260251Z 10008KT 10SM SCT060 16/04 A3035 RMK AO2 SLP276 T01610039 51003

VFR

17.2°C / 5.6°C

[Más]
Viento 100º 7kt
Visibilidad >10km
Tiempo -
Nubes Overcast 6500ft
Presión 1027
Cambiar -
Bruto KILG 260151Z 10007KT 10SM OVC065 17/06 A3035 RMK AO2 SLP276 T01720056

VFR

18.3°C / 6.1°C

[Más]
Viento 120º 10kt
Visibilidad >10km
Tiempo -
Nubes Overcast 7000ft
Presión 1027
Cambiar -
Bruto KILG 260051Z 12010KT 10SM OVC070 18/06 A3035 RMK AO2 SLP277 T01830061

VFR

19.4°C / 7.8°C

[Más]
Viento 110º 8kt
Visibilidad >10km
Tiempo -
Nubes Overcast 7000ft
Presión 1027
Cambiar -
Bruto KILG 252351Z 11008KT 10SM OVC070 19/08 A3034 RMK AO2 SLP272 T01940078 10239 20194 53007

VFR

21.1°C / 8.3°C

[Más]
Viento 120º 10kt
Visibilidad >10km
Tiempo -
Nubes Broken Clouds 7500ft
Presión 1026
Cambiar -
Bruto KILG 252251Z 12010KT 10SM BKN075 21/08 A3032 RMK AO2 SLP265 T02110083

VFR

21.7°C / 11.1°C

[Más]
Viento 180º 10kt
Visibilidad >10km
Tiempo -
Nubes Clear
Presión 1026
Cambiar -
Bruto KILG 252151Z 18010KT 10SM CLR 22/11 A3031 RMK AO2 SLP265 T02170111

VFR

22.8°C / 10°C

[Más]
Viento 180º 10kt
Visibilidad >10km
Tiempo -
Nubes Scattered Clouds 7500ft
Presión 1026
Cambiar -
Bruto KILG 252051Z 18010KT 10SM SCT075 23/10 A3032 RMK AO2 SLP265 T02280100 56011

VFR

23.3°C / 8.3°C

[Más]
Viento 140º 10kt
Visibilidad >10km
Tiempo -
Nubes Broken Clouds 8000ft
Presión 1026
Cambiar -
Bruto KILG 251951Z 14010KT 10SM BKN080 23/08 A3032 RMK AO2 SLP267 T02330083

VFR

23.3°C / 8.9°C

[Más]
Viento 130º 9kt Gust 17kt
Visibilidad >10km
Tiempo -
Nubes Overcast 8000ft
Presión 1027
Cambiar -
Bruto KILG 251851Z 13009G17KT 10SM OVC080 23/09 A3034 RMK AO2 SLP273 T02330089

VFR

23.3°C / 8.9°C

[Más]
Viento 120º 11kt
Visibilidad >10km
Tiempo -
Nubes Overcast 8000ft
Presión 1027
Cambiar -
Bruto KILG 251751Z 12011KT 10SM OVC080 23/09 A3035 RMK AO2 SLP276 T02330089 10233 20156 57010

VFR

22.2°C / 10°C

[Más]
Viento 90º 9kt
Visibilidad >10km
Tiempo -
Nubes Overcast 8000ft
Presión 1027
Cambiar -
Bruto KILG 251651Z 09009KT 10SM OVC080 22/10 A3036 RMK AO2 SLP279 T02220100

TAF a Wilmington Manor (KILG)

From till


From till Wind 90º 4kt. Visibility 10km or more. Overcast 3000ft.
From till Wind 130º 5kt. Visibility 9700m. Mist . Overcast 1500ft.
From till Wind 140º 7kt. Visibility 9700m. Mist . Overcast 800ft.
From till Wind 170º 5kt. Visibility 9700m. Mist . Overcast 4000ft.

Bruto: KILG 261120Z 2612/2712 09004KT P6SM OVC030 FM261500 13005KT 6SM BR OVC015 FM262200 14007KT 6SM BR OVC008 FM270600 17005KT 6SM BR OVC040

Radar y precipitación nowcast para Wilmington Manor

llovizna
Leve
Moderado
Fuerte
Muy fuerte
Granizo

El marcador del lugar se coloca en Wilmington Manor. Esta animación muestra el radar de precipitaciones hasta la última hora, así como 1h de previsión. Las lloviznas o las nevadas ligeras pueden ser invisibles para el radar. La intensidad de la precipitación está codificada por colores, que van del azul claro al naranja.

Imágenes actuales de satélite para Wilmington Manor, Estados Unidos

El marcador del lugar se coloca en Wilmington Manor. [Más]

La imagen de satélite en tiempo real se aprovecha de la combinación de bandas de la luz visible y de la luz infrarroja. Cómo se pueden detectar cambios de temperaturas a través de la banda infrarrojo, la imagen no aparece oscura de noche. No obstante, la niebla y las nubes bajas son apenas visibles en las imágenes de infrarrojo ya que las diferencias de temperaturas entre el suelo y la niebla son muy pequeñas, por eso, son casi invisibles durante la noche. Las imágenes de satélite del Meteosat (Europa) son actualizados en tiempo real cada 5 minutos. Las imágenes del GOES-16/GOES-17 (América del Norte y América del Sur) y Himawari (Asia) son actualizadas cada 10 minutos.

Volver al principio